Time;durP1;ratioP1;P1;durP2;ratioP2;P2;SDS_P1;SDS_P2;PMS_P1;PMS_P2;Temp;Humidity;BMP_temperature;BMP_pressure;BME280_temperature;BME280_humidity;BME280_pressure;Samples;Min_cycle;Max_cycle;Signal;HPM_P1;HPM_P2
2022/05/23 00:01:27;;;;;;;0.80;0.50;;;18.70;99.90;;;;;;5113129;28;20545;-57
2022/05/23 00:03:54;;;;;;;0.80;0.57;;;18.70;99.90;;;;;;5115420;28;20494;-55
2022/05/23 00:06:22;;;;;;;0.70;0.50;;;18.70;99.90;;;;;;5114638;28;21157;-56
2022/05/23 00:08:51;;;;;;;0.70;0.50;;;18.70;99.90;;;;;;5112014;28;20457;-57
2022/05/23 00:11:19;;;;;;;0.60;0.50;;;18.70;99.90;;;;;;5113110;28;20457;-56
2022/05/23 00:13:46;;;;;;;0.60;0.40;;;18.70;99.90;;;;;;5115687;28;20440;-56
2022/05/23 00:16:22;;;;;;;0.70;0.50;;;18.80;99.90;;;;;;5116414;28;21009;-57
2022/05/23 00:18:49;;;;;;;0.53;0.40;;;18.90;87.40;;;;;;5111112;28;20899;-57
2022/05/23 00:21:17;;;;;;;0.70;0.50;;;19.00;53.60;;;;;;5115625;28;20452;-57
2022/05/23 00:23:44;;;;;;;0.70;0.50;;;18.90;1.00;;;;;;5116519;28;20956;-56
2022/05/23 00:26:13;;;;;;;0.60;0.40;;;18.90;1.00;;;;;;5115055;28;20461;-58
2022/05/23 00:28:40;;;;;;;0.67;0.53;;;18.80;1.00;;;;;;5113015;28;20478;-55
2022/05/23 00:31:08;;;;;;;0.50;0.40;;;18.70;11.50;;;;;;5116212;28;20935;-56
2022/05/23 00:36:20;;;;;;;2.50;0.50;;;18.70;29.30;;;;;;5110998;28;20514;-57
2022/05/23 00:38:47;;;;;;;0.60;0.40;;;18.70;99.90;;;;;;5116278;28;20453;-57
2022/05/23 00:44:13;;;;;;;1.10;0.50;;;18.60;99.90;;;;;;5114896;28;20524;-57
2022/05/23 00:46:53;;;;;;;0.90;0.50;;;18.50;99.90;;;;;;5110517;28;20557;-57
2022/05/23 00:49:23;;;;;;;0.60;0.50;;;18.50;99.90;;;;;;5110852;28;20539;-57
2022/05/23 00:51:50;;;;;;;0.80;0.60;;;18.50;99.90;;;;;;5116154;28;20995;-57
2022/05/23 00:54:17;;;;;;;0.77;0.60;;;18.60;99.90;;;;;;5109640;28;20460;-57
2022/05/23 00:56:51;;;;;;;0.90;0.60;;;18.70;99.90;;;;;;5116671;28;20766;-56
2022/05/23 00:59:23;;;;;;;4.80;0.70;;;18.90;99.90;;;;;;5115047;28;20535;-57
2022/05/23 01:01:50;;;;;;;0.60;0.60;;;18.90;99.90;;;;;;5114502;28;20456;-57
2022/05/23 01:04:17;;;;;;;0.90;0.60;;;18.80;99.90;;;;;;5111825;28;20834;-57
2022/05/23 01:06:44;;;;;;;0.60;0.50;;;18.80;99.90;;;;;;5114221;28;20455;-58
2022/05/23 01:09:12;;;;;;;0.83;0.60;;;18.70;99.90;;;;;;5115251;28;20448;-57
2022/05/23 01:11:39;;;;;;;1.83;0.40;;;18.70;99.90;;;;;;5112999;28;20559;-57
2022/05/23 01:14:08;;;;;;;2.20;0.50;;;18.70;99.90;;;;;;5113869;28;20447;-55
2022/05/23 01:16:35;;;;;;;0.70;0.50;;;18.80;99.90;;;;;;5116035;28;20942;-56
2022/05/23 01:19:02;;;;;;;0.90;0.50;;;18.80;99.90;;;;;;5115716;28;20532;-56
2022/05/23 01:21:37;;;;;;;0.73;0.50;;;18.80;99.90;;;;;;5111914;28;20559;-57
2022/05/23 01:24:12;;;;;;;0.60;0.50;;;18.70;99.90;;;;;;5114026;28;20480;-57
2022/05/23 01:26:40;;;;;;;0.93;0.50;;;18.80;99.90;;;;;;5114873;28;20455;-57
2022/05/23 01:29:12;;;;;;;1.37;0.60;;;18.70;99.90;;;;;;5114553;28;20468;-55
2022/05/23 01:31:39;;;;;;;1.67;0.60;;;18.70;99.90;;;;;;5110790;28;20460;-57
2022/05/23 01:34:06;;;;;;;0.60;0.40;;;18.60;99.90;;;;;;5118019;28;20863;-56
2022/05/23 01:36:33;;;;;;;0.90;0.70;;;18.60;99.90;;;;;;5118040;28;20480;-57
2022/05/23 01:38:59;;;;;;;0.70;0.50;;;18.60;99.90;;;;;;5115723;28;20532;-57
2022/05/23 01:41:27;;;;;;;0.73;0.60;;;18.60;99.90;;;;;;5114642;28;20456;-57
2022/05/23 01:43:55;;;;;;;0.80;0.50;;;18.60;99.90;;;;;;5118234;28;20829;-58
2022/05/23 01:46:22;;;;;;;1.07;0.50;;;18.60;99.90;;;;;;5116154;28;20460;-57
2022/05/23 01:48:49;;;;;;;0.80;0.50;;;18.60;99.90;;;;;;5118600;28;20535;-58
2022/05/23 01:51:15;;;;;;;1.70;0.67;;;18.60;99.90;;;;;;5118823;28;20467;-57
2022/05/23 01:53:42;;;;;;;1.10;0.70;;;18.60;99.90;;;;;;5116149;28;20847;-58
2022/05/23 01:56:09;;;;;;;0.60;0.50;;;18.50;99.90;;;;;;5117535;28;20757;-58
2022/05/23 02:01:25;;;;;;;0.70;0.53;;;18.20;99.90;;;;;;5118744;28;20834;-58
2022/05/23 02:03:52;;;;;;;0.83;0.50;;;18.10;99.90;;;;;;5115461;28;20476;-59
2022/05/23 02:06:20;;;;;;;0.70;0.50;;;18.00;99.90;;;;;;5123258;27;20451;-57
2022/05/23 02:08:47;;;;;;;0.77;0.50;;;18.00;1.00;;;;;;5139411;27;20470;-57
2022/05/23 02:11:14;;;;;;;1.27;0.50;;;17.90;1.00;;;;;;5139112;27;20463;-57
2022/05/23 02:13:44;;;;;;;1.90;0.50;;;17.90;1.00;;;;;;5128194;27;20467;-56
2022/05/23 02:16:11;;;;;;;0.80;0.50;;;17.90;1.00;;;;;;5138975;27;20539;-57
2022/05/23 02:18:39;;;;;;;0.97;0.50;;;17.90;1.00;;;;;;5138409;27;20444;-58
2022/05/23 02:21:06;;;;;;;0.70;0.50;;;17.90;1.00;;;;;;5136693;27;20548;-55
2022/05/23 02:23:34;;;;;;;1.00;0.60;;;17.80;1.00;;;;;;5131923;27;20462;-58
2022/05/23 02:26:01;;;;;;;3.03;0.60;;;17.70;1.00;;;;;;5138983;27;20454;-56
2022/05/23 02:28:27;;;;;;;1.00;0.50;;;17.70;1.00;;;;;;5137726;27;20447;-57
2022/05/23 02:30:54;;;;;;;0.73;0.60;;;17.70;1.00;;;;;;5134028;27;20459;-58
2022/05/23 02:33:21;;;;;;;0.83;0.53;;;17.80;1.00;;;;;;5137917;27;20471;-57
2022/05/23 02:35:49;;;;;;;0.70;0.50;;;17.90;1.00;;;;;;5138232;27;20867;-57
2022/05/23 02:38:16;;;;;;;1.00;0.60;;;17.90;1.00;;;;;;5138432;27;20869;-58
2022/05/23 02:40:43;;;;;;;0.60;0.50;;;18.10;1.00;;;;;;5136643;27;20546;-58
2022/05/23 02:43:10;;;;;;;0.70;0.50;;;18.20;1.00;;;;;;5137969;27;20462;-57
2022/05/23 02:45:41;;;;;;;0.60;0.50;;;18.20;1.00;;;;;;5138348;27;20918;-57
2022/05/23 02:48:08;;;;;;;0.83;0.50;;;18.20;1.00;;;;;;5135428;27;20458;-58
2022/05/23 02:50:35;;;;;;;0.70;0.60;;;18.40;1.00;;;;;;5136416;27;20542;-57
2022/05/23 02:53:03;;;;;;;0.70;0.60;;;18.30;1.00;;;;;;5137844;27;20452;-57
2022/05/23 02:55:30;;;;;;;0.73;0.57;;;18.30;1.00;;;;;;5137938;27;20945;-55
2022/05/23 02:57:57;;;;;;;0.80;0.60;;;18.30;1.00;;;;;;5135404;27;20546;-58
2022/05/23 03:00:24;;;;;;;1.40;0.60;;;18.20;1.00;;;;;;5131254;27;20534;-55
2022/05/23 03:03:02;;;;;;;0.70;0.60;;;18.20;1.00;;;;;;5137983;27;20478;-58
2022/05/23 03:05:30;;;;;;;0.70;0.60;;;18.20;1.00;;;;;;5138368;27;20491;-57
2022/05/23 03:07:57;;;;;;;0.80;0.60;;;18.20;1.00;;;;;;5135460;27;20466;-56
2022/05/23 03:10:26;;;;;;;0.70;0.50;;;18.10;1.00;;;;;;5138100;27;20448;-57
2022/05/23 03:12:53;;;;;;;1.83;0.70;;;18.10;1.00;;;;;;5138088;27;20459;-57
2022/05/23 03:15:21;;;;;;;0.80;0.60;;;18.00;1.00;;;;;;5136569;27;20447;-57
2022/05/23 03:17:48;;;;;;;0.70;0.50;;;18.00;64.90;;;;;;5135791;27;20547;-58
2022/05/23 03:20:16;;;;;;;0.70;0.50;;;17.90;99.90;;;;;;5137030;27;20513;-57
2022/05/23 03:28:13;;;;;;;1.00;0.60;;;18.10;1.00;;;;;;5132027;27;20485;-56
2022/05/23 03:30:40;;;;;;;0.60;0.50;;;18.20;1.00;;;;;;5136872;27;20440;-57
2022/05/23 03:33:08;;;;;;;0.90;0.60;;;18.20;1.00;;;;;;5137472;27;20479;-55
2022/05/23 03:35:35;;;;;;;0.63;0.50;;;18.30;1.00;;;;;;5133720;27;20770;-57
2022/05/23 03:38:03;;;;;;;1.00;0.60;;;18.30;1.00;;;;;;5133514;27;20890;-57
2022/05/23 03:40:31;;;;;;;2.23;0.60;;;18.30;1.00;;;;;;5128807;27;20493;-57
2022/05/23 03:43:00;;;;;;;2.67;0.57;;;18.40;1.00;;;;;;5134608;27;20463;-57
2022/05/23 03:45:28;;;;;;;1.10;0.60;;;18.40;1.00;;;;;;5124951;27;20530;-57
2022/05/23 03:47:56;;;;;;;0.77;0.50;;;18.30;1.00;;;;;;5133192;27;20461;-57
2022/05/23 03:50:24;;;;;;;0.73;0.50;;;18.30;1.00;;;;;;5133877;27;20444;-57
2022/05/23 03:52:52;;;;;;;0.60;0.50;;;18.30;1.00;;;;;;5134158;27;20460;-56
2022/05/23 03:55:19;;;;;;;0.90;0.40;;;18.20;99.90;;;;;;5135706;27;20743;-58
2022/05/23 03:57:48;;;;;;;0.70;0.40;;;18.10;99.90;;;;;;5137052;27;20804;-57
2022/05/23 04:00:16;;;;;;;0.83;0.60;;;18.10;99.90;;;;;;5136376;27;20530;-57
2022/05/23 04:02:43;;;;;;;0.70;0.50;;;18.00;99.90;;;;;;5134114;27;20476;-57
2022/05/23 04:05:12;;;;;;;0.87;0.60;;;17.90;99.90;;;;;;5136363;27;20483;-55
2022/05/23 04:07:40;;;;;;;0.70;0.50;;;17.90;99.90;;;;;;5135342;27;20531;-56
2022/05/23 04:10:11;;;;;;;1.00;0.60;;;17.70;99.90;;;;;;5133565;27;20535;-54
2022/05/23 04:12:38;;;;;;;0.90;0.50;;;17.70;1.00;;;;;;5130268;27;20462;-53
2022/05/23 04:15:08;;;;;;;0.80;0.60;;;17.50;4.50;;;;;;5133476;27;20446;-56
2022/05/23 04:17:35;;;;;;;0.60;0.53;;;17.50;1.00;;;;;;5134067;27;21205;-56
2022/05/23 04:20:02;;;;;;;0.80;0.50;;;17.50;1.00;;;;;;5132150;27;20531;-57
2022/05/23 04:22:29;;;;;;;0.70;0.50;;;17.50;1.00;;;;;;5127643;27;20454;-55
2022/05/23 04:24:56;;;;;;;1.00;0.60;;;17.50;1.00;;;;;;5135573;27;20487;-56
2022/05/23 04:27:22;;;;;;;1.00;0.60;;;17.50;99.90;;;;;;5134481;27;20550;-54
2022/05/23 04:29:49;;;;;;;1.07;0.60;;;17.60;1.00;;;;;;5129511;27;20859;-56
2022/05/23 04:35:13;;;;;;;0.80;0.60;;;17.60;1.00;;;;;;5114256;28;20435;-57
2022/05/23 04:37:41;;;;;;;0.63;0.50;;;17.70;89.90;;;;;;5112446;28;20459;-57
2022/05/23 04:40:09;;;;;;;0.70;0.50;;;17.70;99.90;;;;;;5105887;28;20544;-58
2022/05/23 04:42:36;;;;;;;0.73;0.50;;;17.80;99.90;;;;;;5099938;28;20547;-57
2022/05/23 04:45:02;;;;;;;0.50;0.40;;;17.90;99.90;;;;;;5099160;28;20485;-57
2022/05/23 04:50:15;;;;;;;0.50;0.40;;;18.00;99.90;;;;;;5115035;28;20907;-56
2022/05/23 04:52:42;;;;;;;1.33;0.40;;;18.00;99.90;;;;;;5110493;28;20476;-57
2022/05/23 04:55:10;;;;;;;0.60;0.50;;;18.00;1.00;;;;;;5095912;28;20787;-56
2022/05/23 04:57:37;;;;;;;1.00;0.40;;;17.90;99.90;;;;;;5095302;28;20464;-55
2022/05/23 05:00:06;;;;;;;0.60;0.40;;;17.70;99.90;;;;;;5095157;28;20582;-57
2022/05/23 05:02:35;;;;;;;0.73;0.47;;;17.60;1.00;;;;;;5102230;28;20476;-56
2022/05/23 05:05:02;;;;;;;0.70;0.50;;;17.70;1.00;;;;;;5101610;28;21031;-56
2022/05/23 05:07:29;;;;;;;0.73;0.50;;;17.50;1.00;;;;;;5098796;28;20559;-57
2022/05/23 05:09:55;;;;;;;1.27;0.50;;;17.50;1.00;;;;;;5099772;28;20927;-56
2022/05/23 05:12:22;;;;;;;1.00;0.60;;;17.50;1.00;;;;;;5106216;28;20547;-56
2022/05/23 05:14:49;;;;;;;1.83;0.50;;;17.40;1.00;;;;;;5099446;28;20468;-55
2022/05/23 05:17:16;;;;;;;0.70;0.50;;;17.20;1.00;;;;;;5102545;28;20456;-58
2022/05/23 05:19:44;;;;;;;1.40;0.67;;;17.10;4.70;;;;;;5114140;28;20449;-57
2022/05/23 05:22:11;;;;;;;0.97;0.60;;;17.10;52.00;;;;;;5106219;27;20458;-58
2022/05/23 05:24:38;;;;;;;1.10;0.40;;;17.00;26.80;;;;;;5098719;28;20744;-58
2022/05/23 05:27:05;;;;;;;1.57;0.60;;;17.20;12.70;;;;;;5098404;28;20453;-56
2022/05/23 05:29:32;;;;;;;0.60;0.40;;;17.30;34.10;;;;;;5099445;28;20865;-58
2022/05/23 05:32:03;;;;;;;0.90;0.60;;;17.20;23.60;;;;;;5098791;28;20484;-57
2022/05/23 05:34:33;;;;;;;0.80;0.50;;;17.40;12.30;;;;;;5135760;27;20450;-58
2022/05/23 05:37:06;;;;;;;0.60;0.50;;;17.50;15.70;;;;;;5138470;27;20874;-57
2022/05/23 05:39:36;;;;;;;0.60;0.50;;;17.70;1.00;;;;;;5128088;27;20551;-58
2022/05/23 05:42:09;;;;;;;1.37;0.60;;;17.70;15.50;;;;;;5135625;27;20549;-56
2022/05/23 05:44:38;;;;;;;0.80;0.60;;;17.60;18.30;;;;;;5137365;27;20457;-59
2022/05/23 05:47:08;;;;;;;1.00;0.60;;;17.40;49.50;;;;;;5136812;27;20455;-57
2022/05/23 05:49:39;;;;;;;0.93;0.60;;;17.40;72.00;;;;;;5137948;27;21060;-58
2022/05/23 05:52:10;;;;;;;1.93;0.60;;;17.50;77.30;;;;;;5138991;27;20525;-59
2022/05/23 05:54:39;;;;;;;0.77;0.50;;;17.50;75.70;;;;;;5133325;27;20530;-58
2022/05/23 05:57:08;;;;;;;0.70;0.50;;;17.60;60.30;;;;;;5132217;27;20470;-59
2022/05/23 05:59:35;;;;;;;1.30;0.80;;;17.60;44.60;;;;;;5138205;27;20451;-58
2022/05/23 06:02:03;;;;;;;1.03;0.70;;;17.60;44.20;;;;;;5138189;27;20447;-58
2022/05/23 06:04:29;;;;;;;2.40;0.77;;;17.70;50.90;;;;;;5138532;27;20797;-59
2022/05/23 06:12:26;;;;;;;1.07;0.80;;;17.80;1.00;;;;;;5137230;27;20438;-58
2022/05/23 06:14:53;;;;;;;0.70;0.53;;;17.80;1.00;;;;;;5133309;27;20832;-59
2022/05/23 06:17:20;;;;;;;0.70;0.50;;;18.00;1.00;;;;;;5136608;27;20454;-56
2022/05/23 06:19:48;;;;;;;1.47;0.60;;;18.00;1.00;;;;;;5135505;27;20447;-56
2022/05/23 06:22:16;;;;;;;1.20;0.70;;;18.30;1.00;;;;;;5135645;27;20561;-57
2022/05/23 06:24:45;;;;;;;0.80;0.53;;;18.40;1.00;;;;;;5134278;27;20766;-54
2022/05/23 06:27:12;;;;;;;0.67;0.57;;;18.50;1.00;;;;;;5137735;27;20456;-56
2022/05/23 06:29:39;;;;;;;0.83;0.60;;;18.50;1.00;;;;;;5136835;27;20501;-56
2022/05/23 06:32:07;;;;;;;1.10;0.60;;;18.50;1.00;;;;;;5126641;27;20548;-57
2022/05/23 06:34:34;;;;;;;1.00;0.80;;;18.30;1.00;;;;;;5125421;27;20788;-58
2022/05/23 06:37:01;;;;;;;0.80;0.60;;;18.20;17.50;;;;;;5134370;27;20571;-58
2022/05/23 06:39:28;;;;;;;1.43;0.70;;;18.20;18.90;;;;;;5135637;27;20803;-56
2022/05/23 06:41:56;;;;;;;0.87;0.70;;;18.10;1.00;;;;;;5134610;27;20570;-56
2022/05/23 06:44:23;;;;;;;1.47;0.77;;;18.10;1.00;;;;;;5129684;27;21104;-56
2022/05/23 06:46:50;;;;;;;5.33;0.60;;;18.00;1.00;;;;;;5134744;27;20868;-56
2022/05/23 06:49:17;;;;;;;0.93;0.70;;;18.00;34.00;;;;;;5135925;27;20471;-58
2022/05/23 06:51:49;;;;;;;1.13;0.60;;;18.10;8.40;;;;;;5129879;27;20456;-57
2022/05/23 06:54:16;;;;;;;1.67;0.73;;;18.10;1.00;;;;;;5134054;27;20879;-58
2022/05/23 06:56:43;;;;;;;1.10;0.70;;;18.10;1.00;;;;;;5125658;27;20455;-60
2022/05/23 06:59:13;;;;;;;1.03;0.70;;;18.10;1.00;;;;;;5128872;27;20470;-58
2022/05/23 07:01:40;;;;;;;1.00;0.67;;;18.20;1.00;;;;;;5118444;27;20514;-58
2022/05/23 07:04:07;;;;;;;2.43;0.70;;;18.30;1.00;;;;;;5124710;27;20448;-59
2022/05/23 07:12:24;;;;;;;2.93;0.70;;;18.30;1.00;;;;;;5123190;27;20472;-58
2022/05/23 07:14:53;;;;;;;0.93;0.70;;;18.40;1.00;;;;;;5133060;27;20798;-57
2022/05/23 07:17:21;;;;;;;2.20;0.70;;;18.40;1.00;;;;;;5132709;27;20510;-58
2022/05/23 07:19:48;;;;;;;1.30;0.80;;;18.50;1.00;;;;;;5126654;27;20454;-58
2022/05/23 07:22:16;;;;;;;0.90;0.70;;;18.60;1.00;;;;;;5128273;27;20483;-57
2022/05/23 07:24:44;;;;;;;2.20;0.73;;;18.70;99.90;;;;;;5134377;27;20547;-60
2022/05/23 07:27:12;;;;;;;1.70;0.63;;;18.70;1.00;;;;;;5133212;27;20479;-59
2022/05/23 07:29:40;;;;;;;1.00;0.70;;;18.80;1.00;;;;;;5128776;27;20452;-58
2022/05/23 07:32:10;;;;;;;1.07;0.60;;;18.90;1.00;;;;;;5134197;27;20462;-58
2022/05/23 07:34:39;;;;;;;1.03;0.60;;;19.00;1.00;;;;;;5133335;27;20448;-57
2022/05/23 07:37:06;;;;;;;1.73;0.67;;;19.10;1.00;;;;;;5131888;27;20544;-59
2022/05/23 07:39:35;;;;;;;1.30;0.50;;;19.30;99.90;;;;;;5126745;27;20766;-60
2022/05/23 07:42:02;;;;;;;2.50;0.60;;;19.30;1.00;;;;;;5127046;27;20471;-60
2022/05/23 07:44:29;;;;;;;0.90;0.70;;;19.30;99.90;;;;;;5129307;27;21101;-60
2022/05/23 07:46:56;;;;;;;1.33;0.60;;;19.30;99.90;;;;;;5126795;27;20998;-59
2022/05/23 07:49:26;;;;;;;1.90;0.63;;;19.40;99.90;;;;;;5126005;27;20518;-60
2022/05/23 07:51:53;;;;;;;1.57;0.70;;;19.70;95.30;;;;;;5126056;27;20491;-59
2022/05/23 08:02:34;;;;;;;2.43;0.90;;;19.70;99.90;;;;;;5135567;27;20492;-60
2022/05/23 08:05:03;;;;;;;1.07;0.60;;;19.80;99.90;;;;;;5130837;27;20579;-60
2022/05/23 08:07:30;;;;;;;0.80;0.60;;;20.00;99.90;;;;;;5122753;27;20795;-59
2022/05/23 08:10:00;;;;;;;0.80;0.60;;;20.10;99.90;;;;;;5128100;27;20449;-59
2022/05/23 08:12:28;;;;;;;1.17;0.60;;;20.20;1.00;;;;;;5131427;27;20473;-60
2022/05/23 08:14:55;;;;;;;0.90;0.63;;;20.30;1.00;;;;;;5133254;27;20466;-59
2022/05/23 08:17:22;;;;;;;1.90;0.80;;;20.30;1.00;;;;;;5131912;27;20487;-60
2022/05/23 08:19:49;;;;;;;1.00;0.70;;;20.30;99.90;;;;;;5135430;27;20505;-60
2022/05/23 08:22:19;;;;;;;1.27;0.70;;;20.30;99.90;;;;;;5130473;27;20468;-60
2022/05/23 08:24:46;;;;;;;3.50;0.77;;;20.10;1.00;;;;;;5131897;27;20448;-60
2022/05/23 08:27:13;;;;;;;1.60;0.70;;;20.20;1.00;;;;;;5132011;27;20552;-58
2022/05/23 08:29:40;;;;;;;1.00;0.60;;;20.20;99.90;;;;;;5128067;27;20448;-58
2022/05/23 08:32:11;;;;;;;1.00;0.60;;;20.40;99.90;;;;;;5126619;27;20500;-58
2022/05/23 08:34:38;;;;;;;1.47;0.60;;;20.40;1.00;;;;;;5129127;27;20871;-59
2022/05/23 08:37:06;;;;;;;0.70;0.50;;;20.40;1.00;;;;;;5134986;27;20637;-59
2022/05/23 08:39:34;;;;;;;0.80;0.60;;;20.50;1.00;;;;;;5129863;27;20448;-59
2022/05/23 08:42:07;;;;;;;2.37;0.80;;;20.50;65.10;;;;;;5125813;27;20467;-59
2022/05/23 08:44:44;;;;;;;2.20;1.00;;;20.60;1.00;;;;;;5131042;27;20444;-59
2022/05/23 08:47:17;;;;;;;3.20;0.83;;;20.70;1.00;;;;;;5130294;27;20490;-61
2022/05/23 08:49:50;;;;;;;2.80;0.70;;;20.70;1.00;;;;;;5132100;27;20962;-59
2022/05/23 08:52:25;;;;;;;1.87;0.67;;;20.70;1.00;;;;;;5126787;27;20570;-59
2022/05/23 08:55:01;;;;;;;1.63;0.70;;;20.70;1.00;;;;;;5131764;27;20908;-60
2022/05/23 08:57:35;;;;;;;1.10;0.60;;;20.80;1.00;;;;;;5132061;27;20508;-61
2022/05/23 09:00:06;;;;;;;1.40;0.63;;;20.80;1.00;;;;;;5121581;27;20460;-61
2022/05/23 09:02:47;;;;;;;1.80;0.73;;;20.80;99.90;;;;;;5134139;27;20455;-60
2022/05/23 09:05:18;;;;;;;1.10;0.70;;;20.80;1.00;;;;;;5133767;27;20897;-58
2022/05/23 09:07:49;;;;;;;1.47;0.70;;;21.00;1.00;;;;;;5128305;27;20475;-58
2022/05/23 09:10:23;;;;;;;2.27;0.63;;;21.20;1.00;;;;;;5125432;27;20444;-59
2022/05/23 09:12:53;;;;;;;1.10;0.80;;;21.40;1.00;;;;;;5129493;27;20817;-59
2022/05/23 09:15:20;;;;;;;1.20;0.67;;;21.60;1.00;;;;;;5127722;28;20443;-60
2022/05/23 09:17:52;;;;;;;1.60;0.90;;;21.60;1.00;;;;;;5126098;27;20462;-59
2022/05/23 09:20:27;;;;;;;0.90;0.70;;;21.40;1.00;;;;;;5126189;28;20776;-59
2022/05/23 09:22:59;;;;;;;1.20;0.60;;;21.20;99.90;;;;;;5130328;28;20549;-59
2022/05/23 09:25:28;;;;;;;1.17;0.90;;;20.90;1.00;;;;;;5124281;28;20465;-59
2022/05/23 09:28:18;;;;;;;0.90;0.60;;;20.90;23.50;;;;;;5127780;27;20577;-59
2022/05/23 09:30:48;;;;;;;1.00;0.70;;;21.00;1.00;;;;;;5130980;27;20459;-59
2022/05/23 09:33:18;;;;;;;1.23;0.57;;;21.00;1.00;;;;;;5123547;28;21006;-59
2022/05/23 09:35:54;;;;;;;1.20;0.80;;;21.00;1.00;;;;;;5129340;28;20546;-59
2022/05/23 09:38:25;;;;;;;0.90;0.70;;;21.10;1.00;;;;;;5128883;28;21096;-59
2022/05/23 09:40:54;;;;;;;1.00;0.70;;;21.10;99.90;;;;;;5129880;27;20452;-59
2022/05/23 09:49:14;;;;;;;4.40;1.20;;;21.20;1.00;;;;;;5038675;28;20454;-58
2022/05/23 09:51:50;;;;;;;0.70;0.60;;;21.40;99.90;;;;;;5024868;28;20575;-59
2022/05/23 09:54:20;;;;;;;0.90;0.70;;;21.60;1.00;;;;;;5086097;27;20448;-59
2022/05/23 09:56:50;;;;;;;1.13;0.70;;;21.90;1.00;;;;;;5127057;27;20460;-59
2022/05/23 09:59:26;;;;;;;1.00;0.80;;;22.10;99.90;;;;;;5125895;27;20455;-59
2022/05/23 10:01:53;;;;;;;0.70;0.60;;;22.00;99.90;;;;;;5127994;27;20455;-59
2022/05/23 10:04:25;;;;;;;1.00;0.70;;;22.40;1.00;;;;;;5130980;27;20447;-59
2022/05/23 10:06:52;;;;;;;0.90;0.77;;;22.70;1.00;;;;;;5130807;27;20484;-58
2022/05/23 10:09:31;;;;;;;0.90;0.70;;;22.80;99.90;;;;;;5131384;27;20460;-59
2022/05/23 10:12:01;;;;;;;0.87;0.70;;;22.90;1.00;;;;;;5127441;27;20739;-59
2022/05/23 10:14:43;;;;;;;1.70;1.00;;;22.70;1.00;;;;;;5130289;27;20572;-58
2022/05/23 10:17:10;;;;;;;1.60;0.80;;;22.70;99.90;;;;;;5130094;27;20554;-59
2022/05/23 10:19:39;;;;;;;1.10;0.70;;;22.60;99.90;;;;;;5131014;27;20934;-59
2022/05/23 10:22:10;;;;;;;1.20;0.90;;;22.40;1.00;;;;;;5130358;27;20578;-58
2022/05/23 10:24:42;;;;;;;1.30;0.80;;;22.50;5.30;;;;;;5124031;27;20456;-59
2022/05/23 10:27:15;;;;;;;3.10;0.97;;;22.70;1.00;;;;;;5130803;27;20476;-59
2022/05/23 10:29:48;;;;;;;0.90;0.70;;;22.90;1.00;;;;;;5127060;27;20918;-57
2022/05/23 10:32:21;;;;;;;1.47;0.70;;;22.90;99.90;;;;;;5132188;27;20479;-58
2022/05/23 10:34:51;;;;;;;2.10;0.80;;;23.00;99.90;;;;;;5124587;27;20536;-58
2022/05/23 10:37:20;;;;;;;1.10;0.70;;;23.20;99.90;;;;;;5123342;27;20495;-58
2022/05/23 10:42:39;;;;;;;1.23;0.70;;;23.20;99.90;;;;;;5124795;27;20438;-59
2022/05/23 10:45:15;;;;;;;1.57;0.80;;;23.10;99.90;;;;;;5132847;27;21055;-58
2022/05/23 10:48:05;;;;;;;2.30;0.80;;;23.00;1.00;;;;;;5126012;27;20491;-58
2022/05/23 10:50:39;;;;;;;1.00;0.73;;;22.80;1.00;;;;;;5088697;27;20443;-60
2022/05/23 10:53:14;;;;;;;0.70;0.60;;;22.90;1.00;;;;;;5124388;27;20454;-59
2022/05/23 10:55:49;;;;;;;0.90;0.70;;;22.80;1.00;;;;;;5129806;27;20447;-58
2022/05/23 10:58:30;;;;;;;1.80;0.70;;;22.70;1.00;;;;;;5130267;27;20450;-58
2022/05/23 11:01:04;;;;;;;1.47;0.90;;;22.50;1.00;;;;;;5123298;27;21033;-58
2022/05/23 11:03:40;;;;;;;1.03;0.73;;;22.40;99.90;;;;;;5134808;27;20946;-59
2022/05/23 11:06:15;;;;;;;1.50;0.80;;;22.30;99.90;;;;;;5126319;27;20447;-59
2022/05/23 11:08:57;;;;;;;1.30;0.80;;;22.20;99.90;;;;;;5126807;27;20505;-57
2022/05/23 11:11:46;;;;;;;1.13;0.87;;;22.00;1.00;;;;;;5131989;27;20451;-57
2022/05/23 11:14:30;;;;;;;2.83;1.00;;;21.80;1.00;;;;;;5130256;27;20838;-56
2022/05/23 11:17:05;;;;;;;3.90;3.60;;;21.60;1.00;;;;;;5128097;27;20458;-55
2022/05/23 11:19:41;;;;;;;4.10;1.00;;;21.60;1.00;;;;;;5129097;27;20538;-56
2022/05/23 11:22:14;;;;;;;1.70;1.20;;;21.40;1.00;;;;;;5128394;27;20481;-57
2022/05/23 11:24:45;;;;;;;2.77;0.83;;;21.20;1.00;;;;;;5135126;27;20893;-57
2022/05/23 11:35:48;;;;;;;1.60;1.00;;;20.40;99.90;;;;;;5130194;27;20500;-57
2022/05/23 11:38:16;;;;;;;1.80;0.90;;;20.20;99.90;;;;;;5123392;27;20527;-57
2022/05/23 11:41:07;;;;;;;2.50;1.10;;;19.80;99.90;;;;;;5127076;27;20451;-57
2022/05/23 11:43:35;;;;;;;1.10;0.90;;;19.60;99.90;;;;;;5124611;27;20755;-58
2022/05/23 11:46:06;;;;;;;3.67;1.00;;;19.40;99.90;;;;;;5125096;27;20522;-56
2022/05/23 11:48:58;;;;;;;1.40;0.90;;;19.30;99.90;;;;;;5126575;27;20481;-56
2022/05/23 11:51:37;;;;;;;1.97;0.90;;;19.20;99.90;;;;;;5131289;27;20456;-54
2022/05/23 11:54:09;;;;;;;1.63;0.90;;;19.20;99.90;;;;;;5122030;27;20447;-51
2022/05/23 11:56:48;;;;;;;1.47;0.70;;;19.10;99.90;;;;;;5130442;27;20455;-49
2022/05/23 11:59:49;;;;;;;1.77;0.60;;;19.00;99.90;;;;;;5126498;27;20446;-54
2022/05/23 12:02:26;;;;;;;2.07;1.10;;;18.70;99.90;;;;;;5126731;27;20554;-53
2022/05/23 12:05:30;;;;;;;1.57;0.70;;;18.60;99.90;;;;;;5124225;27;20447;-58
2022/05/23 12:08:05;;;;;;;1.93;0.70;;;18.50;99.90;;;;;;5132186;27;20491;-59
2022/05/23 12:10:59;;;;;;;1.20;0.57;;;18.40;99.90;;;;;;5123542;27;20533;-58
2022/05/23 12:13:52;;;;;;;0.80;0.50;;;18.30;99.90;;;;;;5127316;27;20448;-59
2022/05/23 12:16:39;;;;;;;1.07;0.50;;;18.30;99.90;;;;;;5122199;27;20456;-58
2022/05/23 12:19:33;;;;;;;3.03;0.67;;;18.30;99.90;;;;;;5129195;27;20455;-58
2022/05/23 12:22:26;;;;;;;4.60;0.60;;;18.30;99.90;;;;;;5116512;27;20562;-57
2022/05/23 12:25:25;;;;;;;1.57;0.60;;;18.40;99.90;;;;;;5131113;27;20535;-58
2022/05/23 12:28:15;;;;;;;2.47;0.70;;;18.50;99.90;;;;;;5127282;27;20506;-58
2022/05/23 12:31:02;;;;;;;1.60;0.50;;;18.60;99.90;;;;;;5124974;27;20469;-58
2022/05/23 12:33:29;;;;;;;1.60;0.60;;;18.70;99.90;;;;;;5121932;27;20539;-55
2022/05/23 12:36:06;;;;;;;0.90;0.60;;;18.80;99.90;;;;;;5124929;27;20846;-56
2022/05/23 12:38:44;;;;;;;1.27;0.50;;;18.90;99.90;;;;;;5125955;27;20440;-56
2022/05/23 12:41:18;;;;;;;2.93;0.57;;;19.00;99.90;;;;;;5126459;27;20451;-56
2022/05/23 12:44:04;;;;;;;2.77;0.60;;;19.20;99.90;;;;;;5128226;27;20444;-57
2022/05/23 12:46:44;;;;;;;1.10;0.40;;;19.40;99.90;;;;;;5120627;27;20492;-56
2022/05/23 12:49:31;;;;;;;1.50;0.50;;;19.50;99.90;;;;;;5132315;27;20890;-57
2022/05/23 12:52:12;;;;;;;1.20;0.70;;;19.50;99.90;;;;;;5130686;27;21071;-58
2022/05/23 12:54:54;;;;;;;3.30;0.67;;;19.60;99.90;;;;;;5126867;27;20471;-58
2022/05/23 12:57:58;;;;;;;2.00;0.60;;;19.70;99.90;;;;;;5127711;28;20538;-57
2022/05/23 13:00:32;;;;;;;1.70;0.53;;;19.80;99.90;;;;;;5086179;28;20473;-54
2022/05/23 13:03:08;;;;;;;0.83;0.53;;;20.10;99.90;;;;;;5128060;28;20443;-57
2022/05/23 13:05:41;;;;;;;1.30;0.50;;;20.20;99.90;;;;;;5131115;27;20886;-59
2022/05/23 13:08:18;;;;;;;3.73;1.27;;;20.30;99.90;;;;;;5124321;28;20586;-55
2022/05/23 13:10:51;;;;;;;5.60;3.00;;;20.70;99.90;;;;;;5128550;27;20460;-56
2022/05/23 13:13:25;;;;;;;3.00;1.00;;;20.60;99.90;;;;;;5125681;28;21013;-56
2022/05/23 13:15:52;;;;;;;6.40;1.00;;;20.70;99.90;;;;;;5130269;27;20443;-55
2022/05/23 13:23:53;;;;;;;0.80;0.50;;;21.10;99.90;;;;;;5127818;27;20901;-53
2022/05/23 13:26:21;;;;;;;0.80;0.50;;;21.40;99.90;;;;;;5124110;27;20475;-52
2022/05/23 13:28:53;;;;;;;1.03;0.50;;;21.70;99.90;;;;;;5134701;27;20514;-54
2022/05/23 13:31:26;;;;;;;2.40;0.50;;;22.10;99.90;;;;;;5124626;27;20456;-54
2022/05/23 13:33:55;;;;;;;3.80;0.60;;;22.50;99.90;;;;;;5129878;27;20517;-56
2022/05/23 13:36:24;;;;;;;1.10;0.53;;;22.90;90.50;;;;;;5130095;27;20916;-56
2022/05/23 13:39:05;;;;;;;1.33;0.50;;;23.10;28.10;;;;;;5134107;27;20521;-57
2022/05/23 13:41:33;;;;;;;1.83;0.40;;;23.30;31.60;;;;;;5127029;27;20455;-58
2022/05/23 13:44:00;;;;;;;0.90;0.50;;;23.40;47.70;;;;;;5130165;27;20530;-57
2022/05/23 13:46:30;;;;;;;1.20;0.53;;;23.40;13.60;;;;;;5129502;27;21335;-58
2022/05/23 13:49:02;;;;;;;1.03;0.40;;;23.50;33.40;;;;;;5132621;27;20472;-57
2022/05/23 13:51:39;;;;;;;1.77;0.50;;;23.60;20.40;;;;;;5131208;27;20538;-56
2022/05/23 13:54:12;;;;;;;0.83;0.40;;;23.80;33.00;;;;;;5137448;27;20451;-51
2022/05/23 13:56:43;;;;;;;1.37;0.70;;;24.00;1.00;;;;;;5136663;27;20454;-57
2022/05/23 13:59:15;;;;;;;0.80;0.50;;;24.20;99.90;;;;;;5129510;27;20459;-55
2022/05/23 14:01:46;;;;;;;1.10;0.50;;;24.40;99.90;;;;;;5134929;27;20452;-57
2022/05/23 14:04:17;;;;;;;2.93;0.50;;;24.30;58.70;;;;;;5131235;27;20954;-55
2022/05/23 14:06:48;;;;;;;2.07;0.50;;;24.40;99.90;;;;;;5131358;27;20475;-58
2022/05/23 14:09:18;;;;;;;2.20;0.43;;;24.50;99.90;;;;;;5130182;27;20570;-58
2022/05/23 14:11:49;;;;;;;0.50;0.37;;;24.80;1.00;;;;;;5134165;27;20603;-56